sensor_id;sensor_type;location;lat;lon;timestamp;temperature;humidity
22678;DHT22;26259;50.214;18.620;2023-04-15T00:00:35;9.00;99.90
22678;DHT22;26259;50.214;18.620;2023-04-15T00:03:01;8.80;99.90
22678;DHT22;26259;50.214;18.620;2023-04-15T00:05:29;8.70;99.90
22678;DHT22;26259;50.214;18.620;2023-04-15T00:07:54;8.60;99.90
22678;DHT22;26259;50.214;18.620;2023-04-15T00:10:20;8.50;99.90
22678;DHT22;26259;50.214;18.620;2023-04-15T00:12:45;8.40;99.90
22678;DHT22;26259;50.214;18.620;2023-04-15T00:15:11;8.30;99.90
22678;DHT22;26259;50.214;18.620;2023-04-15T00:17:37;8.20;99.90
22678;DHT22;26259;50.214;18.620;2023-04-15T00:20:04;8.00;99.90
22678;DHT22;26259;50.214;18.620;2023-04-15T00:22:31;8.00;99.90
22678;DHT22;26259;50.214;18.620;2023-04-15T00:24:57;8.00;99.90
22678;DHT22;26259;50.214;18.620;2023-04-15T00:27:22;7.90;99.90
22678;DHT22;26259;50.214;18.620;2023-04-15T00:29:48;7.80;99.90
22678;DHT22;26259;50.214;18.620;2023-04-15T00:32:13;7.70;99.90
22678;DHT22;26259;50.214;18.620;2023-04-15T00:34:39;7.70;99.90
22678;DHT22;26259;50.214;18.620;2023-04-15T00:37:05;7.60;99.90
22678;DHT22;26259;50.214;18.620;2023-04-15T00:39:30;7.60;99.90
22678;DHT22;26259;50.214;18.620;2023-04-15T00:41:57;7.50;99.90
22678;DHT22;26259;50.214;18.620;2023-04-15T00:44:22;7.40;99.90
22678;DHT22;26259;50.214;18.620;2023-04-15T00:46:50;7.40;99.90
22678;DHT22;26259;50.214;18.620;2023-04-15T00:49:16;7.30;99.90
22678;DHT22;26259;50.214;18.620;2023-04-15T00:51:44;7.20;99.90
22678;DHT22;26259;50.214;18.620;2023-04-15T00:54:10;7.20;99.90
22678;DHT22;26259;50.214;18.620;2023-04-15T00:56:37;7.10;99.90
22678;DHT22;26259;50.214;18.620;2023-04-15T00:59:04;7.10;99.90
22678;DHT22;26259;50.214;18.620;2023-04-15T01:01:32;7.10;99.90
22678;DHT22;26259;50.214;18.620;2023-04-15T01:03:57;7.10;99.90
22678;DHT22;26259;50.214;18.620;2023-04-15T01:06:23;7.10;99.90
22678;DHT22;26259;50.214;18.620;2023-04-15T01:08:49;7.10;99.90
22678;DHT22;26259;50.214;18.620;2023-04-15T01:11:16;7.20;99.90
22678;DHT22;26259;50.214;18.620;2023-04-15T01:13:42;7.20;99.90
22678;DHT22;26259;50.214;18.620;2023-04-15T01:16:08;7.30;99.90
22678;DHT22;26259;50.214;18.620;2023-04-15T01:18:34;7.30;99.90
22678;DHT22;26259;50.214;18.620;2023-04-15T01:21:02;7.40;99.90
22678;DHT22;26259;50.214;18.620;2023-04-15T01:23:29;7.40;99.90
22678;DHT22;26259;50.214;18.620;2023-04-15T01:25:55;7.40;99.90
22678;DHT22;26259;50.214;18.620;2023-04-15T01:28:21;7.40;99.90
22678;DHT22;26259;50.214;18.620;2023-04-15T01:30:46;7.30;99.90
22678;DHT22;26259;50.214;18.620;2023-04-15T01:33:12;7.30;99.90
22678;DHT22;26259;50.214;18.620;2023-04-15T01:35:38;7.30;99.90
22678;DHT22;26259;50.214;18.620;2023-04-15T01:38:08;7.30;99.90
22678;DHT22;26259;50.214;18.620;2023-04-15T01:40:34;7.30;99.90
22678;DHT22;26259;50.214;18.620;2023-04-15T01:43:01;7.30;99.90
22678;DHT22;26259;50.214;18.620;2023-04-15T01:45:27;7.20;99.90
22678;DHT22;26259;50.214;18.620;2023-04-15T01:47:53;7.20;99.90
22678;DHT22;26259;50.214;18.620;2023-04-15T01:50:18;7.20;99.90
22678;DHT22;26259;50.214;18.620;2023-04-15T01:52:45;7.10;99.90
22678;DHT22;26259;50.214;18.620;2023-04-15T01:55:11;7.10;99.90
22678;DHT22;26259;50.214;18.620;2023-04-15T01:57:37;7.10;99.90
22678;DHT22;26259;50.214;18.620;2023-04-15T02:00:03;7.00;99.90
22678;DHT22;26259;50.214;18.620;2023-04-15T02:02:29;7.00;99.90
22678;DHT22;26259;50.214;18.620;2023-04-15T02:04:55;7.00;99.90
22678;DHT22;26259;50.214;18.620;2023-04-15T02:07:20;6.90;99.90
22678;DHT22;26259;50.214;18.620;2023-04-15T02:09:46;6.90;99.90
22678;DHT22;26259;50.214;18.620;2023-04-15T02:12:12;6.90;99.90
22678;DHT22;26259;50.214;18.620;2023-04-15T02:14:37;6.90;99.90
22678;DHT22;26259;50.214;18.620;2023-04-15T02:17:03;6.90;99.90
22678;DHT22;26259;50.214;18.620;2023-04-15T02:19:33;6.90;99.90
22678;DHT22;26259;50.214;18.620;2023-04-15T02:21:59;6.90;99.90
22678;DHT22;26259;50.214;18.620;2023-04-15T02:24:26;6.80;99.90
22678;DHT22;26259;50.214;18.620;2023-04-15T02:26:51;6.80;99.90
22678;DHT22;26259;50.214;18.620;2023-04-15T02:29:17;6.80;99.90
22678;DHT22;26259;50.214;18.620;2023-04-15T02:31:42;6.70;99.90
22678;DHT22;26259;50.214;18.620;2023-04-15T02:34:09;6.70;99.90
22678;DHT22;26259;50.214;18.620;2023-04-15T02:36:35;6.70;99.90
22678;DHT22;26259;50.214;18.620;2023-04-15T02:39:01;6.70;99.90
22678;DHT22;26259;50.214;18.620;2023-04-15T02:41:26;6.70;99.90
22678;DHT22;26259;50.214;18.620;2023-04-15T02:43:53;6.70;99.90
22678;DHT22;26259;50.214;18.620;2023-04-15T02:46:19;6.70;99.90
22678;DHT22;26259;50.214;18.620;2023-04-15T02:48:46;6.60;99.90
22678;DHT22;26259;50.214;18.620;2023-04-15T02:51:16;6.60;99.90
22678;DHT22;26259;50.214;18.620;2023-04-15T02:53:44;6.60;99.90
22678;DHT22;26259;50.214;18.620;2023-04-15T02:56:10;6.50;99.90
22678;DHT22;26259;50.214;18.620;2023-04-15T02:58:37;6.50;99.90
22678;DHT22;26259;50.214;18.620;2023-04-15T03:01:02;6.40;99.90
22678;DHT22;26259;50.214;18.620;2023-04-15T03:03:28;6.50;99.90
22678;DHT22;26259;50.214;18.620;2023-04-15T03:05:53;6.70;99.90
22678;DHT22;26259;50.214;18.620;2023-04-15T03:08:19;6.90;99.90
22678;DHT22;26259;50.214;18.620;2023-04-15T03:10:48;6.90;99.90
22678;DHT22;26259;50.214;18.620;2023-04-15T03:13:13;6.80;99.90
22678;DHT22;26259;50.214;18.620;2023-04-15T03:15:39;6.80;99.90
22678;DHT22;26259;50.214;18.620;2023-04-15T03:18:04;6.70;99.90
22678;DHT22;26259;50.214;18.620;2023-04-15T03:20:30;6.60;99.90
22678;DHT22;26259;50.214;18.620;2023-04-15T03:22:55;6.50;99.90
22678;DHT22;26259;50.214;18.620;2023-04-15T03:25:21;6.50;99.90
22678;DHT22;26259;50.214;18.620;2023-04-15T03:27:47;6.40;99.90
22678;DHT22;26259;50.214;18.620;2023-04-15T03:30:12;6.40;99.90
22678;DHT22;26259;50.214;18.620;2023-04-15T03:32:38;6.30;99.90
22678;DHT22;26259;50.214;18.620;2023-04-15T03:35:04;6.20;99.90
22678;DHT22;26259;50.214;18.620;2023-04-15T03:37:30;6.20;99.90
22678;DHT22;26259;50.214;18.620;2023-04-15T03:39:56;6.10;99.90
22678;DHT22;26259;50.214;18.620;2023-04-15T03:42:21;6.10;99.90
22678;DHT22;26259;50.214;18.620;2023-04-15T03:44:47;6.00;99.90
22678;DHT22;26259;50.214;18.620;2023-04-15T03:47:12;6.00;99.90
22678;DHT22;26259;50.214;18.620;2023-04-15T03:49:38;6.00;99.90
22678;DHT22;26259;50.214;18.620;2023-04-15T03:52:04;5.90;99.90
22678;DHT22;26259;50.214;18.620;2023-04-15T03:54:29;5.80;99.90
22678;DHT22;26259;50.214;18.620;2023-04-15T03:56:55;5.70;99.90
22678;DHT22;26259;50.214;18.620;2023-04-15T03:59:21;5.60;99.90
22678;DHT22;26259;50.214;18.620;2023-04-15T04:01:46;5.60;99.90
22678;DHT22;26259;50.214;18.620;2023-04-15T04:04:12;5.50;99.90
22678;DHT22;26259;50.214;18.620;2023-04-15T04:06:38;5.50;99.90
22678;DHT22;26259;50.214;18.620;2023-04-15T04:09:03;5.40;99.90
22678;DHT22;26259;50.214;18.620;2023-04-15T04:11:29;5.30;99.90
22678;DHT22;26259;50.214;18.620;2023-04-15T04:13:55;5.20;99.90
22678;DHT22;26259;50.214;18.620;2023-04-15T04:16:20;5.20;99.90
22678;DHT22;26259;50.214;18.620;2023-04-15T04:18:46;5.10;99.90
22678;DHT22;26259;50.214;18.620;2023-04-15T04:21:11;5.10;99.90
22678;DHT22;26259;50.214;18.620;2023-04-15T04:23:37;5.00;99.90
22678;DHT22;26259;50.214;18.620;2023-04-15T04:26:02;5.00;99.90
22678;DHT22;26259;50.214;18.620;2023-04-15T04:28:28;5.00;99.90
22678;DHT22;26259;50.214;18.620;2023-04-15T04:30:54;5.10;99.90
22678;DHT22;26259;50.214;18.620;2023-04-15T04:33:20;5.10;99.90
22678;DHT22;26259;50.214;18.620;2023-04-15T04:35:45;5.20;99.90
22678;DHT22;26259;50.214;18.620;2023-04-15T04:38:11;5.20;99.90
22678;DHT22;26259;50.214;18.620;2023-04-15T04:40:36;5.30;99.90
22678;DHT22;26259;50.214;18.620;2023-04-15T04:43:02;5.40;99.90
22678;DHT22;26259;50.214;18.620;2023-04-15T04:45:28;5.50;99.90
22678;DHT22;26259;50.214;18.620;2023-04-15T04:47:53;5.60;99.90
22678;DHT22;26259;50.214;18.620;2023-04-15T04:50:19;5.60;99.90
22678;DHT22;26259;50.214;18.620;2023-04-15T04:52:44;5.70;99.90
22678;DHT22;26259;50.214;18.620;2023-04-15T04:55:10;5.70;99.90
22678;DHT22;26259;50.214;18.620;2023-04-15T04:57:36;5.70;99.90
22678;DHT22;26259;50.214;18.620;2023-04-15T05:00:05;5.80;99.90
22678;DHT22;26259;50.214;18.620;2023-04-15T05:02:30;5.80;99.90
22678;DHT22;26259;50.214;18.620;2023-04-15T05:04:56;5.80;99.90
22678;DHT22;26259;50.214;18.620;2023-04-15T05:07:22;5.90;99.90
22678;DHT22;26259;50.214;18.620;2023-04-15T05:09:47;6.00;99.90
22678;DHT22;26259;50.214;18.620;2023-04-15T05:12:13;6.10;99.90
22678;DHT22;26259;50.214;18.620;2023-04-15T05:14:40;6.30;99.90
22678;DHT22;26259;50.214;18.620;2023-04-15T05:17:06;6.40;99.90
22678;DHT22;26259;50.214;18.620;2023-04-15T05:19:32;6.60;99.90
22678;DHT22;26259;50.214;18.620;2023-04-15T05:21:57;6.80;99.90
22678;DHT22;26259;50.214;18.620;2023-04-15T05:24:23;6.90;99.90
22678;DHT22;26259;50.214;18.620;2023-04-15T05:26:49;7.10;99.90
22678;DHT22;26259;50.214;18.620;2023-04-15T05:29:14;7.30;99.90
22678;DHT22;26259;50.214;18.620;2023-04-15T05:31:40;7.40;99.90
22678;DHT22;26259;50.214;18.620;2023-04-15T05:34:06;7.50;99.90
22678;DHT22;26259;50.214;18.620;2023-04-15T05:36:31;7.70;99.90
22678;DHT22;26259;50.214;18.620;2023-04-15T05:38:57;7.80;99.90
22678;DHT22;26259;50.214;18.620;2023-04-15T05:41:23;8.00;99.90
22678;DHT22;26259;50.214;18.620;2023-04-15T05:43:48;8.10;99.90
22678;DHT22;26259;50.214;18.620;2023-04-15T05:46:14;8.20;99.90
22678;DHT22;26259;50.214;18.620;2023-04-15T05:48:40;8.20;99.90
22678;DHT22;26259;50.214;18.620;2023-04-15T05:51:05;8.30;99.90
22678;DHT22;26259;50.214;18.620;2023-04-15T05:53:31;8.40;99.90
22678;DHT22;26259;50.214;18.620;2023-04-15T05:55:57;8.50;99.90
22678;DHT22;26259;50.214;18.620;2023-04-15T05:58:22;8.50;99.90
22678;DHT22;26259;50.214;18.620;2023-04-15T06:00:48;8.60;99.90
22678;DHT22;26259;50.214;18.620;2023-04-15T06:03:13;8.60;99.90
22678;DHT22;26259;50.214;18.620;2023-04-15T06:05:39;8.60;99.90
22678;DHT22;26259;50.214;18.620;2023-04-15T06:08:05;8.60;99.90
22678;DHT22;26259;50.214;18.620;2023-04-15T06:10:30;8.70;99.90
22678;DHT22;26259;50.214;18.620;2023-04-15T06:13:03;8.80;99.90
22678;DHT22;26259;50.214;18.620;2023-04-15T06:15:29;8.90;99.90
22678;DHT22;26259;50.214;18.620;2023-04-15T06:17:55;9.00;99.90
22678;DHT22;26259;50.214;18.620;2023-04-15T06:20:20;9.10;99.90
22678;DHT22;26259;50.214;18.620;2023-04-15T06:22:46;9.30;99.90
22678;DHT22;26259;50.214;18.620;2023-04-15T06:25:12;9.40;99.90
22678;DHT22;26259;50.214;18.620;2023-04-15T06:27:37;9.60;99.90
22678;DHT22;26259;50.214;18.620;2023-04-15T06:30:04;9.60;99.90
22678;DHT22;26259;50.214;18.620;2023-04-15T06:32:31;9.70;99.90
22678;DHT22;26259;50.214;18.620;2023-04-15T06:34:57;9.90;99.90
22678;DHT22;26259;50.214;18.620;2023-04-15T06:37:22;10.10;99.90
22678;DHT22;26259;50.214;18.620;2023-04-15T06:39:48;10.30;99.90
22678;DHT22;26259;50.214;18.620;2023-04-15T06:42:13;10.50;99.90
22678;DHT22;26259;50.214;18.620;2023-04-15T06:44:39;10.70;99.90
22678;DHT22;26259;50.214;18.620;2023-04-15T06:47:05;10.90;99.90
22678;DHT22;26259;50.214;18.620;2023-04-15T06:49:30;11.00;99.90
22678;DHT22;26259;50.214;18.620;2023-04-15T06:51:56;11.00;99.90
22678;DHT22;26259;50.214;18.620;2023-04-15T06:54:22;10.80;99.90
22678;DHT22;26259;50.214;18.620;2023-04-15T06:56:47;10.70;99.90
22678;DHT22;26259;50.214;18.620;2023-04-15T06:59:13;10.60;99.90
22678;DHT22;26259;50.214;18.620;2023-04-15T07:01:42;10.50;99.90
22678;DHT22;26259;50.214;18.620;2023-04-15T07:04:07;10.60;99.90
22678;DHT22;26259;50.214;18.620;2023-04-15T07:06:33;10.70;99.90
22678;DHT22;26259;50.214;18.620;2023-04-15T07:08:59;10.90;99.90
22678;DHT22;26259;50.214;18.620;2023-04-15T07:11:26;11.10;99.90
22678;DHT22;26259;50.214;18.620;2023-04-15T07:13:51;11.30;99.90
22678;DHT22;26259;50.214;18.620;2023-04-15T07:16:17;11.50;99.90
22678;DHT22;26259;50.214;18.620;2023-04-15T07:18:43;11.60;99.90
22678;DHT22;26259;50.214;18.620;2023-04-15T07:21:08;11.70;99.90
22678;DHT22;26259;50.214;18.620;2023-04-15T07:23:34;11.80;99.90
22678;DHT22;26259;50.214;18.620;2023-04-15T07:25:59;11.90;99.90
22678;DHT22;26259;50.214;18.620;2023-04-15T07:28:26;11.90;99.90
22678;DHT22;26259;50.214;18.620;2023-04-15T07:30:51;12.00;99.90
22678;DHT22;26259;50.214;18.620;2023-04-15T07:33:17;12.10;99.90
22678;DHT22;26259;50.214;18.620;2023-04-15T07:35:42;12.30;99.90
22678;DHT22;26259;50.214;18.620;2023-04-15T07:38:09;12.50;99.90
22678;DHT22;26259;50.214;18.620;2023-04-15T07:40:37;12.70;99.90
22678;DHT22;26259;50.214;18.620;2023-04-15T07:43:03;12.90;99.90
22678;DHT22;26259;50.214;18.620;2023-04-15T07:45:30;13.00;99.90
22678;DHT22;26259;50.214;18.620;2023-04-15T07:47:56;13.00;99.90
22678;DHT22;26259;50.214;18.620;2023-04-15T07:50:22;13.00;99.90
22678;DHT22;26259;50.214;18.620;2023-04-15T07:52:48;12.90;99.90
22678;DHT22;26259;50.214;18.620;2023-04-15T07:55:14;12.90;99.90
22678;DHT22;26259;50.214;18.620;2023-04-15T07:57:41;13.00;99.90
22678;DHT22;26259;50.214;18.620;2023-04-15T08:00:07;13.10;99.90
22678;DHT22;26259;50.214;18.620;2023-04-15T08:02:34;13.20;99.90
22678;DHT22;26259;50.214;18.620;2023-04-15T08:04:59;13.30;99.90
22678;DHT22;26259;50.214;18.620;2023-04-15T08:07:27;13.30;99.90
22678;DHT22;26259;50.214;18.620;2023-04-15T08:09:52;13.40;99.90
22678;DHT22;26259;50.214;18.620;2023-04-15T08:12:18;13.60;99.90
22678;DHT22;26259;50.214;18.620;2023-04-15T08:14:43;13.60;99.90
22678;DHT22;26259;50.214;18.620;2023-04-15T08:17:10;13.70;99.90
22678;DHT22;26259;50.214;18.620;2023-04-15T08:19:35;13.80;99.90
22678;DHT22;26259;50.214;18.620;2023-04-15T08:22:01;13.80;99.90
22678;DHT22;26259;50.214;18.620;2023-04-15T08:24:27;13.90;99.90
22678;DHT22;26259;50.214;18.620;2023-04-15T08:26:52;14.10;99.90
22678;DHT22;26259;50.214;18.620;2023-04-15T08:29:18;14.30;99.90
22678;DHT22;26259;50.214;18.620;2023-04-15T08:31:44;14.50;99.90
22678;DHT22;26259;50.214;18.620;2023-04-15T08:34:13;14.60;99.90
22678;DHT22;26259;50.214;18.620;2023-04-15T08:36:38;14.80;99.90
22678;DHT22;26259;50.214;18.620;2023-04-15T08:39:04;15.10;99.90
22678;DHT22;26259;50.214;18.620;2023-04-15T08:41:44;15.20;99.90
22678;DHT22;26259;50.214;18.620;2023-04-15T08:44:13;15.20;99.90
22678;DHT22;26259;50.214;18.620;2023-04-15T08:46:40;15.50;98.00
22678;DHT22;26259;50.214;18.620;2023-04-15T08:49:10;15.60;93.10
22678;DHT22;26259;50.214;18.620;2023-04-15T08:51:40;15.80;86.90
22678;DHT22;26259;50.214;18.620;2023-04-15T08:54:07;15.60;82.20
22678;DHT22;26259;50.214;18.620;2023-04-15T08:56:33;15.40;86.90
22678;DHT22;26259;50.214;18.620;2023-04-15T08:58:59;15.30;92.60
22678;DHT22;26259;50.214;18.620;2023-04-15T09:01:26;15.40;82.10
22678;DHT22;26259;50.214;18.620;2023-04-15T09:03:52;15.40;88.50
22678;DHT22;26259;50.214;18.620;2023-04-15T09:06:19;15.60;82.20
22678;DHT22;26259;50.214;18.620;2023-04-15T09:08:45;15.70;82.30
22678;DHT22;26259;50.214;18.620;2023-04-15T09:11:11;16.00;92.80
22678;DHT22;26259;50.214;18.620;2023-04-15T09:13:36;16.40;90.20
22678;DHT22;26259;50.214;18.620;2023-04-15T09:16:04;16.70;75.50
22678;DHT22;26259;50.214;18.620;2023-04-15T09:18:32;16.50;75.20
22678;DHT22;26259;50.214;18.620;2023-04-15T09:23:31;16.90;77.90
22678;DHT22;26259;50.214;18.620;2023-04-15T09:25:57;17.10;74.30
22678;DHT22;26259;50.214;18.620;2023-04-15T09:28:24;17.40;69.80
22678;DHT22;26259;50.214;18.620;2023-04-15T09:30:54;17.40;49.10
22678;DHT22;26259;50.214;18.620;2023-04-15T09:33:20;17.20;53.50
22678;DHT22;26259;50.214;18.620;2023-04-15T09:35:57;17.30;57.00
22678;DHT22;26259;50.214;18.620;2023-04-15T09:38:23;17.40;62.00
22678;DHT22;26259;50.214;18.620;2023-04-15T09:40:49;17.40;55.30
22678;DHT22;26259;50.214;18.620;2023-04-15T09:43:14;17.40;52.40
22678;DHT22;26259;50.214;18.620;2023-04-15T09:45:52;17.20;54.70
22678;DHT22;26259;50.214;18.620;2023-04-15T09:48:23;16.90;48.50
22678;DHT22;26259;50.214;18.620;2023-04-15T09:50:51;16.60;52.60
22678;DHT22;26259;50.214;18.620;2023-04-15T09:53:22;16.10;58.80
22678;DHT22;26259;50.214;18.620;2023-04-15T09:55:56;16.30;73.20
22678;DHT22;26259;50.214;18.620;2023-04-15T09:58:26;16.40;74.70
22678;DHT22;26259;50.214;18.620;2023-04-15T10:00:55;16.60;70.30
22678;DHT22;26259;50.214;18.620;2023-04-15T10:03:29;16.70;71.90
22678;DHT22;26259;50.214;18.620;2023-04-15T10:05:57;17.10;62.80
22678;DHT22;26259;50.214;18.620;2023-04-15T10:08:31;17.50;64.60
22678;DHT22;26259;50.214;18.620;2023-04-15T10:10:58;17.40;56.50
22678;DHT22;26259;50.214;18.620;2023-04-15T10:13:26;17.60;57.90
22678;DHT22;26259;50.214;18.620;2023-04-15T10:15:59;17.60;55.40
22678;DHT22;26259;50.214;18.620;2023-04-15T10:18:27;17.60;57.40
22678;DHT22;26259;50.214;18.620;2023-04-15T10:20:53;17.90;52.50
22678;DHT22;26259;50.214;18.620;2023-04-15T10:23:19;18.10;51.10
22678;DHT22;26259;50.214;18.620;2023-04-15T10:25:46;17.90;47.70
22678;DHT22;26259;50.214;18.620;2023-04-15T10:28:14;17.90;49.70
22678;DHT22;26259;50.214;18.620;2023-04-15T10:30:40;17.70;50.70
22678;DHT22;26259;50.214;18.620;2023-04-15T10:33:08;17.30;46.10
22678;DHT22;26259;50.214;18.620;2023-04-15T10:35:34;17.30;51.40
22678;DHT22;26259;50.214;18.620;2023-04-15T10:38:00;17.00;50.70
22678;DHT22;26259;50.214;18.620;2023-04-15T10:42:58;17.00;44.70
22678;DHT22;26259;50.214;18.620;2023-04-15T10:45:26;17.20;51.20
22678;DHT22;26259;50.214;18.620;2023-04-15T10:48:00;17.50;55.40
22678;DHT22;26259;50.214;18.620;2023-04-15T10:50:26;17.70;52.50
22678;DHT22;26259;50.214;18.620;2023-04-15T10:52:55;18.00;49.00
22678;DHT22;26259;50.214;18.620;2023-04-15T10:55:23;18.00;51.50
22678;DHT22;26259;50.214;18.620;2023-04-15T10:57:54;18.00;48.30
22678;DHT22;26259;50.214;18.620;2023-04-15T11:00:28;17.70;45.00
22678;DHT22;26259;50.214;18.620;2023-04-15T11:02:56;17.30;51.50
22678;DHT22;26259;50.214;18.620;2023-04-15T11:08:04;17.00;53.20
22678;DHT22;26259;50.214;18.620;2023-04-15T11:13:02;16.40;66.60
22678;DHT22;26259;50.214;18.620;2023-04-15T11:15:39;16.20;66.00
22678;DHT22;26259;50.214;18.620;2023-04-15T11:21:04;16.00;64.30
22678;DHT22;26259;50.214;18.620;2023-04-15T11:25:59;15.80;66.40
22678;DHT22;26259;50.214;18.620;2023-04-15T11:28:30;15.50;78.90
22678;DHT22;26259;50.214;18.620;2023-04-15T11:30:56;15.30;81.00
22678;DHT22;26259;50.214;18.620;2023-04-15T11:33:23;15.20;91.70
22678;DHT22;26259;50.214;18.620;2023-04-15T11:35:52;15.20;93.30
22678;DHT22;26259;50.214;18.620;2023-04-15T11:38:19;15.20;94.10
22678;DHT22;26259;50.214;18.620;2023-04-15T11:40:45;15.10;84.10
22678;DHT22;26259;50.214;18.620;2023-04-15T11:43:15;15.10;83.10
22678;DHT22;26259;50.214;18.620;2023-04-15T11:45:58;15.20;86.60
22678;DHT22;26259;50.214;18.620;2023-04-15T11:48:33;15.30;78.70
22678;DHT22;26259;50.214;18.620;2023-04-15T11:51:04;15.30;79.60
22678;DHT22;26259;50.214;18.620;2023-04-15T11:53:48;15.30;85.20
22678;DHT22;26259;50.214;18.620;2023-04-15T11:56:25;15.40;70.70
22678;DHT22;26259;50.214;18.620;2023-04-15T11:58:52;15.50;69.70
22678;DHT22;26259;50.214;18.620;2023-04-15T12:01:18;15.50;83.40
22678;DHT22;26259;50.214;18.620;2023-04-15T12:03:45;15.70;83.40
22678;DHT22;26259;50.214;18.620;2023-04-15T12:09:06;15.80;56.90
22678;DHT22;26259;50.214;18.620;2023-04-15T12:14:11;15.80;59.10
22678;DHT22;26259;50.214;18.620;2023-04-15T12:16:40;16.00;73.70
22678;DHT22;26259;50.214;18.620;2023-04-15T12:19:11;16.20;63.90
22678;DHT22;26259;50.214;18.620;2023-04-15T12:21:39;16.30;54.20
22678;DHT22;26259;50.214;18.620;2023-04-15T12:24:09;16.60;47.60
22678;DHT22;26259;50.214;18.620;2023-04-15T12:26:51;16.60;50.30
22678;DHT22;26259;50.214;18.620;2023-04-15T12:29:18;16.70;57.70
22678;DHT22;26259;50.214;18.620;2023-04-15T12:31:52;16.50;68.50
22678;DHT22;26259;50.214;18.620;2023-04-15T12:34:29;16.40;67.70
22678;DHT22;26259;50.214;18.620;2023-04-15T12:36:55;16.70;84.20
22678;DHT22;26259;50.214;18.620;2023-04-15T12:39:27;16.70;61.80
22678;DHT22;26259;50.214;18.620;2023-04-15T12:41:53;16.80;65.50
22678;DHT22;26259;50.214;18.620;2023-04-15T12:44:20;16.80;67.00
22678;DHT22;26259;50.214;18.620;2023-04-15T12:46:47;16.80;69.50
22678;DHT22;26259;50.214;18.620;2023-04-15T12:49:12;16.80;57.50
22678;DHT22;26259;50.214;18.620;2023-04-15T12:51:44;16.40;58.90
22678;DHT22;26259;50.214;18.620;2023-04-15T12:54:10;16.30;72.00
22678;DHT22;26259;50.214;18.620;2023-04-15T12:56:35;16.20;74.20
22678;DHT22;26259;50.214;18.620;2023-04-15T12:59:01;16.00;72.00
22678;DHT22;26259;50.214;18.620;2023-04-15T13:01:27;15.90;70.60
22678;DHT22;26259;50.214;18.620;2023-04-15T13:03:52;15.80;78.30
22678;DHT22;26259;50.214;18.620;2023-04-15T13:06:18;15.80;90.80
22678;DHT22;26259;50.214;18.620;2023-04-15T13:08:44;15.90;77.30
22678;DHT22;26259;50.214;18.620;2023-04-15T13:11:09;15.80;76.50
22678;DHT22;26259;50.214;18.620;2023-04-15T13:13:35;15.80;85.50
22678;DHT22;26259;50.214;18.620;2023-04-15T13:16:00;15.80;86.70
22678;DHT22;26259;50.214;18.620;2023-04-15T13:18:26;15.70;83.00
22678;DHT22;26259;50.214;18.620;2023-04-15T13:20:53;15.50;93.10
22678;DHT22;26259;50.214;18.620;2023-04-15T13:23:19;15.40;91.50
22678;DHT22;26259;50.214;18.620;2023-04-15T13:25:45;15.40;94.30
22678;DHT22;26259;50.214;18.620;2023-04-15T13:28:11;15.50;86.30
22678;DHT22;26259;50.214;18.620;2023-04-15T13:30:37;15.50;73.00
22678;DHT22;26259;50.214;18.620;2023-04-15T13:33:03;15.50;73.90
22678;DHT22;26259;50.214;18.620;2023-04-15T13:35:30;15.50;68.70
22678;DHT22;26259;50.214;18.620;2023-04-15T13:37:55;15.50;70.40
22678;DHT22;26259;50.214;18.620;2023-04-15T13:40:21;15.50;65.10
22678;DHT22;26259;50.214;18.620;2023-04-15T13:42:46;15.50;58.80
22678;DHT22;26259;50.214;18.620;2023-04-15T13:45:12;15.60;60.30
22678;DHT22;26259;50.214;18.620;2023-04-15T13:47:39;15.60;63.70
22678;DHT22;26259;50.214;18.620;2023-04-15T13:50:05;15.70;73.60
22678;DHT22;26259;50.214;18.620;2023-04-15T13:52:31;15.70;71.10
22678;DHT22;26259;50.214;18.620;2023-04-15T13:54:56;15.70;79.50
22678;DHT22;26259;50.214;18.620;2023-04-15T13:57:22;15.70;67.00
22678;DHT22;26259;50.214;18.620;2023-04-15T13:59:48;15.70;71.70
22678;DHT22;26259;50.214;18.620;2023-04-15T14:02:13;15.70;78.90
22678;DHT22;26259;50.214;18.620;2023-04-15T14:04:39;15.70;71.30
22678;DHT22;26259;50.214;18.620;2023-04-15T14:07:04;15.50;75.30
22678;DHT22;26259;50.214;18.620;2023-04-15T14:09:30;15.50;84.10
22678;DHT22;26259;50.214;18.620;2023-04-15T14:11:55;15.60;91.50
22678;DHT22;26259;50.214;18.620;2023-04-15T14:14:21;15.50;94.20
22678;DHT22;26259;50.214;18.620;2023-04-15T14:16:47;15.50;99.90
22678;DHT22;26259;50.214;18.620;2023-04-15T14:19:13;15.40;99.90
22678;DHT22;26259;50.214;18.620;2023-04-15T14:21:39;15.30;99.90
22678;DHT22;26259;50.214;18.620;2023-04-15T14:24:04;15.10;99.90
22678;DHT22;26259;50.214;18.620;2023-04-15T14:26:30;14.60;99.90
22678;DHT22;26259;50.214;18.620;2023-04-15T14:28:56;14.20;99.90
22678;DHT22;26259;50.214;18.620;2023-04-15T14:31:21;13.80;99.90
22678;DHT22;26259;50.214;18.620;2023-04-15T14:33:47;13.40;99.90
22678;DHT22;26259;50.214;18.620;2023-04-15T14:36:12;13.10;99.90
22678;DHT22;26259;50.214;18.620;2023-04-15T14:38:38;12.90;99.90
22678;DHT22;26259;50.214;18.620;2023-04-15T14:41:07;12.70;99.90
22678;DHT22;26259;50.214;18.620;2023-04-15T14:43:34;12.50;99.90
22678;DHT22;26259;50.214;18.620;2023-04-15T14:45:59;12.50;99.90
22678;DHT22;26259;50.214;18.620;2023-04-15T14:48:25;12.40;99.90
22678;DHT22;26259;50.214;18.620;2023-04-15T14:50:51;12.40;99.90
22678;DHT22;26259;50.214;18.620;2023-04-15T14:53:17;12.40;99.90
22678;DHT22;26259;50.214;18.620;2023-04-15T14:55:43;12.50;99.90
22678;DHT22;26259;50.214;18.620;2023-04-15T14:58:09;12.60;99.90
22678;DHT22;26259;50.214;18.620;2023-04-15T15:00:36;12.60;99.90
22678;DHT22;26259;50.214;18.620;2023-04-15T15:03:05;12.70;99.90
22678;DHT22;26259;50.214;18.620;2023-04-15T15:05:40;12.80;99.90
22678;DHT22;26259;50.214;18.620;2023-04-15T15:08:07;12.90;99.90
22678;DHT22;26259;50.214;18.620;2023-04-15T15:10:34;12.90;99.90
22678;DHT22;26259;50.214;18.620;2023-04-15T15:13:01;13.00;99.90
22678;DHT22;26259;50.214;18.620;2023-04-15T15:15:27;13.00;99.90
22678;DHT22;26259;50.214;18.620;2023-04-15T15:17:53;13.00;99.90
22678;DHT22;26259;50.214;18.620;2023-04-15T15:20:19;13.00;99.90
22678;DHT22;26259;50.214;18.620;2023-04-15T15:22:44;13.00;99.90
22678;DHT22;26259;50.214;18.620;2023-04-15T15:25:10;13.00;99.90
22678;DHT22;26259;50.214;18.620;2023-04-15T15:27:35;13.00;99.90
22678;DHT22;26259;50.214;18.620;2023-04-15T15:30:02;13.00;99.90
22678;DHT22;26259;50.214;18.620;2023-04-15T15:32:27;13.10;99.90
22678;DHT22;26259;50.214;18.620;2023-04-15T15:34:53;13.10;99.90
22678;DHT22;26259;50.214;18.620;2023-04-15T15:37:19;13.10;99.90
22678;DHT22;26259;50.214;18.620;2023-04-15T15:39:45;13.00;99.90